Time;durP1;ratioP1;P1;durP2;ratioP2;P2;SDS_P1;SDS_P2;PMS_P1;PMS_P2;Temp;Humidity;BMP_temperature;BMP_pressure;BME280_temperature;BME280_humidity;BME280_pressure;Samples;Min_cycle;Max_cycle;Signal;HPM_P1;HPM_P2
2022/02/20 00:02:10;;;;;;;31.10;12.60;;;;;;;-0.28;62.94;98348.38;106052;1280;22678;-74
2022/02/20 00:04:40;;;;;;;38.50;14.10;;;;;;;-0.30;62.91;98349.49;106005;1280;22609;-74
2022/02/20 00:07:07;;;;;;;48.40;17.20;;;;;;;-0.32;63.01;98346.66;105711;1281;136972;-74
2022/02/20 00:09:36;;;;;;;56.20;18.40;;;;;;;-0.33;63.02;98349.81;105287;1282;24220;-73
2022/02/20 00:12:03;;;;;;;43.40;16.50;;;;;;;-0.34;63.34;98344.44;105779;1281;137279;-73
2022/02/20 00:14:30;;;;;;;39.80;14.50;;;;;;;-0.37;63.20;98346.52;105833;1281;25338;-74
2022/02/20 00:16:58;;;;;;;38.70;14.30;;;;;;;-0.38;63.20;98343.09;105843;1280;137831;-74
2022/02/20 00:19:25;;;;;;;37.50;12.60;;;;;;;-0.39;63.45;98341.42;106038;1280;25261;-74
2022/02/20 00:21:53;;;;;;;38.20;14.60;;;;;;;-0.40;63.36;98341.46;105962;1280;22667;-73
2022/02/20 00:24:20;;;;;;;46.70;16.10;;;;;;;-0.38;63.54;98342.77;105850;1280;137114;-73
2022/02/20 00:26:47;;;;;;;43.40;14.60;;;;;;;-0.37;63.68;98341.08;105925;1280;22709;-74
2022/02/20 00:29:15;;;;;;;50.80;15.90;;;;;;;-0.38;63.38;98340.79;105800;1280;137482;-74
2022/02/20 00:31:42;;;;;;;40.60;14.60;;;;;;;-0.39;63.51;98337.64;105926;1280;22570;-73
2022/02/20 00:34:09;;;;;;;42.20;14.50;;;;;;;-0.41;63.58;98329.13;105613;1279;25474;-73
2022/02/20 00:36:36;;;;;;;41.80;14.10;;;;;;;-0.42;63.82;98326.98;105730;1279;137301;-73
2022/02/20 00:39:03;;;;;;;44.60;16.20;;;;;;;-0.43;63.71;98321.73;105823;1282;24226;-73
2022/02/20 00:41:30;;;;;;;46.60;16.10;;;;;;;-0.44;63.75;98317.89;105468;1281;137530;-73
2022/02/20 00:43:57;;;;;;;44.70;15.50;;;;;;;-0.44;63.84;98315.61;105738;1281;22606;-73
2022/02/20 00:46:24;;;;;;;47.80;15.10;;;;;;;-0.45;64.06;98307.00;105619;1280;22559;-74
2022/02/20 00:48:51;;;;;;;41.40;15.20;;;;;;;-0.47;63.96;98310.05;105364;1280;137609;-74
2022/02/20 00:51:20;;;;;;;;;;;;;;;-0.50;64.14;98306.28;105958;1280;22581;-74
2022/02/20 00:53:47;;;;;;;36.30;12.90;;;;;;;-0.53;64.24;98306.48;105793;1280;123283;-74
2022/02/20 00:56:14;;;;;;;44.70;15.80;;;;;;;-0.56;64.26;98311.11;105588;1282;31056;-74
2022/02/20 00:58:44;;;;;;;37.80;14.40;;;;;;;-0.58;64.43;98308.87;105860;1281;24299;-74
2022/02/20 01:01:11;;;;;;;46.00;17.90;;;;;;;-0.62;66.72;98305.17;105744;1281;137432;-74
2022/02/20 01:03:38;;;;;;;45.90;16.40;;;;;;;-0.64;66.31;98300.58;105532;1282;24412;-74
2022/02/20 01:06:06;;;;;;;45.80;16.50;;;;;;;-0.63;65.69;98300.27;105481;1282;138637;-74
2022/02/20 01:08:34;;;;;;;41.20;17.50;;;;;;;-0.60;65.72;98293.40;105681;1281;22590;-74
2022/02/20 01:11:01;;;;;;;40.90;15.60;;;;;;;-0.57;65.43;98291.67;105301;1281;137631;-74
2022/02/20 01:13:28;;;;;;;47.80;17.60;;;;;;;-0.53;65.26;98289.20;105731;1282;22556;-73
2022/02/20 01:15:55;;;;;;;43.30;17.30;;;;;;;-0.50;65.32;98289.66;105697;1281;23093;-73
2022/02/20 01:18:22;;;;;;;47.30;18.50;;;;;;;-0.48;65.31;98286.09;105583;1280;137573;-73
2022/02/20 01:20:52;;;;;;;51.50;20.10;;;;;;;-0.47;65.10;98284.70;105643;1280;22551;-73
2022/02/20 01:23:20;;;;;;;55.90;18.50;;;;;;;-0.47;65.18;98282.23;105557;1280;137665;-73
2022/02/20 01:25:50;;;;;;;47.80;17.30;;;;;;;-0.47;64.97;98276.55;105344;1282;22785;-73
2022/02/20 01:28:19;;;;;;;39.60;17.20;;;;;;;-0.48;64.81;98274.68;105317;1282;25387;-72
2022/02/20 01:31:00;;;;;;;44.40;18.10;;;;;;;-0.51;64.94;98270.36;105392;1282;137413;-72
2022/02/20 01:33:27;;;;;;;45.00;18.40;;;;;;;-0.53;64.90;98261.59;105071;1282;22641;-72
2022/02/20 01:35:55;;;;;;;40.50;16.70;;;;;;;-0.58;65.15;98259.64;105243;1280;137848;-72
2022/02/20 01:38:23;;;;;;;38.80;15.50;;;;;;;-0.63;65.09;98256.41;105690;1280;25240;-72
2022/02/20 01:40:50;;;;;;;45.00;15.60;;;;;;;-0.67;65.04;98245.48;105650;1280;137390;-72
2022/02/20 01:43:18;;;;;;;42.20;15.30;;;;;;;-0.70;65.33;98242.45;105794;1280;25357;-72
2022/02/20 01:45:46;;;;;;;32.90;12.10;;;;;;;-0.73;65.11;98238.02;105830;1280;22681;-72
2022/02/20 01:48:16;;;;;;;;;;;;;;;-0.75;65.15;98236.98;105501;1284;137387;-72
2022/02/20 01:50:47;;;;;;;33.50;12.10;;;;;;;-0.77;65.29;98235.82;105653;1284;25331;-72
2022/02/20 01:53:15;;;;;;;31.00;11.30;;;;;;;-0.80;65.23;98230.30;105628;1282;137622;-72
2022/02/20 01:55:42;;;;;;;26.10;9.80;;;;;;;-0.83;65.13;98229.30;105725;1280;25268;-72
2022/02/20 01:58:37;;;;;;;25.10;9.10;;;;;;;-0.84;65.20;98224.10;105611;1280;22567;-72
2022/02/20 02:01:04;;;;;;;26.90;9.10;;;;;;;-0.85;65.22;98219.92;105746;1280;137257;-72
2022/02/20 02:03:50;;;;;;;26.80;9.30;;;;;;;-0.84;65.18;98208.66;105814;1280;22553;-72
2022/02/20 02:06:31;;;;;;;30.00;10.20;;;;;;;-0.84;64.96;98204.89;105867;1280;137162;-72
2022/02/20 02:08:59;;;;;;;26.30;10.30;;;;;;;-0.85;64.88;98196.25;105707;1282;25219;-71
2022/02/20 02:11:49;;;;;;;22.70;8.50;;;;;;;-0.86;64.88;98195.81;105595;1282;137416;-72
2022/02/20 02:14:27;;;;;;;23.30;9.00;;;;;;;-0.86;64.68;98192.47;105601;1282;24400;-72
2022/02/20 02:17:17;;;;;;;25.70;9.50;;;;;;;-0.86;64.65;98184.63;105743;1283;137325;-72
2022/02/20 02:19:59;;;;;;;29.40;9.70;;;;;;;-0.88;64.52;98183.96;105816;1280;25299;-72
2022/02/20 02:22:45;;;;;;;20.90;8.10;;;;;;;-0.89;64.74;98182.52;105558;1280;22689;-72
2022/02/20 02:25:33;;;;;;;26.30;9.20;;;;;;;-0.90;64.52;98182.02;105485;1280;137149;-72
2022/02/20 02:28:26;;;;;;;22.00;9.40;;;;;;;-0.89;64.58;98179.80;105467;1281;30125;-72
2022/02/20 02:31:15;;;;;;;43.70;16.60;;;;;;;-0.92;66.22;98181.77;105575;1281;137637;-72
2022/02/20 02:33:49;;;;;;;29.00;11.70;;;;;;;-1.00;67.53;98179.04;105576;1282;23959;-72
2022/02/20 02:36:19;;;;;;;33.00;10.80;;;;;;;-1.03;67.42;98180.58;105596;1282;138635;-72
2022/02/20 02:38:47;;;;;;;27.60;12.10;;;;;;;-1.04;66.98;98178.67;105686;1280;25346;-73
2022/02/20 02:41:18;;;;;;;31.80;12.00;;;;;;;-1.02;66.89;98173.25;105571;1281;137856;-73
2022/02/20 02:43:51;;;;;;;29.00;11.30;;;;;;;-0.99;66.71;98169.02;105754;1280;22707;-75
2022/02/20 02:46:19;;;;;;;37.20;11.60;;;;;;;-0.97;66.56;98165.39;105731;1283;22576;-75
2022/02/20 02:48:49;;;;;;;31.30;12.20;;;;;;;-0.96;66.24;98169.03;105577;1280;137589;-75
2022/02/20 02:51:18;;;;;;;31.20;11.30;;;;;;;-0.94;65.83;98163.85;105865;1280;24380;-75
2022/02/20 02:53:45;;;;;;;31.50;11.10;;;;;;;-0.91;65.65;98170.96;105688;1280;137721;-75
2022/02/20 02:56:26;;;;;;;32.50;11.30;;;;;;;-0.89;65.57;98167.30;105526;1283;25336;-75
2022/02/20 02:58:53;;;;;;;32.10;12.30;;;;;;;-0.88;65.51;98161.69;105604;1280;25314;-75
2022/02/20 03:01:21;;;;;;;30.40;10.40;;;;;;;-0.88;65.47;98156.34;105508;1280;137443;-75
2022/02/20 03:03:49;;;;;;;29.50;11.40;;;;;;;-0.89;65.49;98146.48;105542;1280;22563;-76
2022/02/20 03:06:19;;;;;;;29.20;11.50;;;;;;;-0.91;65.58;98138.92;105361;1281;137513;-75
2022/02/20 03:08:51;;;;;;;25.70;9.80;;;;;;;-0.95;65.64;98132.34;105523;1280;24266;-72
2022/02/20 03:11:18;;;;;;;25.00;10.10;;;;;;;-0.98;65.57;98125.45;105557;1280;138143;-74
2022/02/20 03:13:45;;;;;;;28.70;10.40;;;;;;;-1.01;65.98;98117.09;105804;1279;25288;-73
2022/02/20 03:16:13;;;;;;;22.90;9.70;;;;;;;-1.05;66.08;98111.14;105757;1279;24276;-74
2022/02/20 03:18:43;;;;;;;25.80;9.30;;;;;;;-1.10;66.17;98103.87;105665;1280;137831;-73
2022/02/20 03:21:32;;;;;;;26.50;8.60;;;;;;;-1.15;65.93;98100.63;105637;1280;25386;-74
2022/02/20 03:23:59;;;;;;;21.10;8.60;;;;;;;-1.17;66.21;98094.63;105682;1280;137402;-73
2022/02/20 03:26:26;;;;;;;23.10;9.20;;;;;;;-1.19;66.24;98086.74;105747;1280;25797;-73
2022/02/20 03:28:56;;;;;;;24.10;9.10;;;;;;;-1.21;66.01;98087.61;105563;1283;24760;-73
2022/02/20 03:31:26;;;;;;;24.40;8.30;;;;;;;-1.21;65.95;98086.27;105620;1280;137399;-73
2022/02/20 03:33:53;;;;;;;20.70;8.60;;;;;;;-1.22;65.70;98083.48;105660;1280;22694;-73
2022/02/20 03:36:34;;;;;;;18.30;7.50;;;;;;;-1.22;65.70;98080.44;105571;1281;137442;-74
2022/02/20 03:39:05;;;;;;;23.80;8.30;;;;;;;-1.21;65.86;98072.92;105744;1280;25378;-73
2022/02/20 03:41:33;;;;;;;17.60;7.10;;;;;;;-1.22;65.75;98072.05;105552;1281;137564;-74
2022/02/20 03:44:02;;;;;;;18.80;7.10;;;;;;;-1.21;65.74;98064.34;105720;1281;25269;-74
2022/02/20 03:46:40;;;;;;;18.20;7.50;;;;;;;-1.21;65.85;98066.61;105653;1282;25505;-74
2022/02/20 03:49:07;;;;;;;19.60;8.50;;;;;;;-1.20;65.70;98068.11;105671;1280;138326;-74
2022/02/20 03:51:55;;;;;;;22.00;7.80;;;;;;;-1.17;66.07;98069.02;105806;1280;24231;-73
2022/02/20 03:54:30;;;;;;;18.20;6.60;;;;;;;-1.15;65.95;98063.42;105662;1280;137344;-73
2022/02/20 03:56:58;;;;;;;20.40;7.80;;;;;;;-1.11;65.70;98065.58;105719;1283;22556;-73
2022/02/20 03:59:43;;;;;;;25.20;7.60;;;;;;;-1.08;65.90;98065.30;105606;1280;137781;-73
2022/02/20 04:02:10;;;;;;;27.30;8.80;;;;;;;-1.06;66.07;98059.53;105747;1281;22579;-73
2022/02/20 04:04:38;;;;;;;25.70;8.70;;;;;;;-1.03;65.96;98056.86;105602;1281;22586;-73
2022/02/20 04:07:05;;;;;;;22.70;8.40;;;;;;;-1.03;65.72;98052.19;105735;1280;137618;-72
2022/02/20 04:09:32;;;;;;;18.90;8.50;;;;;;;-1.03;65.62;98039.53;105882;1282;25262;-72
2022/02/20 04:12:03;;;;;;;19.00;7.30;;;;;;;-1.01;65.76;98033.23;105535;1281;137668;-72
2022/02/20 04:14:36;;;;;;;19.50;7.50;;;;;;;-1.01;66.23;98027.19;105816;1281;22551;-72
2022/02/20 04:17:07;;;;;;;15.20;5.80;;;;;;;-1.00;66.00;98026.22;105697;1280;25280;-72
2022/02/20 04:19:34;;;;;;;14.80;5.80;;;;;;;-0.99;65.97;98025.36;105675;1280;137319;-72
2022/02/20 04:22:02;;;;;;;13.30;5.40;;;;;;;-0.97;65.86;98011.09;105793;1280;23941;-72
2022/02/20 04:24:29;;;;;;;17.70;6.10;;;;;;;-0.95;65.75;98012.44;105777;1280;137145;-72
2022/02/20 04:26:57;;;;;;;10.90;4.70;;;;;;;-0.92;65.80;98002.69;105867;1280;22551;-72
2022/02/20 04:29:35;;;;;;;15.90;5.00;;;;;;;-0.89;65.58;97991.80;105686;1280;137455;-73
2022/02/20 04:32:04;;;;;;;14.10;4.90;;;;;;;-0.86;65.41;97986.45;105625;1282;25377;-73
2022/02/20 04:34:31;;;;;;;12.60;4.60;;;;;;;-0.81;65.30;97984.66;105771;1282;24332;-72
2022/02/20 04:36:58;;;;;;;14.10;5.00;;;;;;;-0.78;65.29;97984.91;105661;1281;137821;-72
2022/02/20 04:39:25;;;;;;;14.00;4.80;;;;;;;-0.74;65.01;97981.06;105798;1281;25269;-72
2022/02/20 04:41:52;;;;;;;13.60;4.90;;;;;;;-0.70;64.96;97982.27;105388;1282;137449;-72
2022/02/20 04:44:40;;;;;;;13.30;5.40;;;;;;;-0.67;64.76;97977.17;105598;1280;22674;-72
2022/02/20 04:47:09;;;;;;;15.50;5.10;;;;;;;-0.64;64.50;97968.13;105646;1280;22737;-72
2022/02/20 04:49:38;;;;;;;11.90;5.20;;;;;;;-0.62;64.44;97971.40;105370;1280;137249;-72
2022/02/20 04:52:15;;;;;;;12.00;5.10;;;;;;;-0.59;64.32;97972.27;105690;1280;22542;-72
2022/02/20 04:55:01;;;;;;;18.20;5.80;;;;;;;-0.53;64.11;97970.87;105518;1280;137632;-72
2022/02/20 04:57:37;;;;;;;18.90;7.90;;;;;;;-0.50;64.03;97963.06;105512;1280;24313;-72
2022/02/20 05:00:08;;;;;;;19.10;8.70;;;;;;;-0.47;64.40;97960.55;105509;1280;137139;-72
2022/02/20 05:02:58;;;;;;;21.10;9.10;;;;;;;-0.47;64.60;97957.84;105114;1281;22566;-72
2022/02/20 05:05:26;;;;;;;22.00;8.90;;;;;;;-0.46;64.44;97951.52;105558;1280;137262;-72
2022/02/20 05:07:54;;;;;;;23.50;9.80;;;;;;;-0.46;64.50;97948.07;105628;1281;25268;-72
2022/02/20 05:10:21;;;;;;;25.80;11.60;;;;;;;-0.46;64.79;97942.23;105706;1280;24318;-72
2022/02/20 05:12:48;;;;;;;28.60;13.80;;;;;;;-0.47;65.10;97937.96;105638;1281;137573;-72
2022/02/20 05:15:15;;;;;;;24.20;11.50;;;;;;;-0.48;65.32;97931.69;105687;1282;24338;-72
2022/02/20 05:17:51;;;;;;;24.20;10.20;;;;;;;-0.48;65.05;97926.60;105588;1280;138365;-72
2022/02/20 05:20:19;;;;;;;23.40;8.70;;;;;;;-0.45;65.07;97919.82;105619;1282;22595;-72
2022/02/20 05:22:50;;;;;;;19.90;7.20;;;;;;;-0.41;65.03;97906.02;105626;1280;23393;-72
2022/02/20 05:25:18;;;;;;;15.10;5.40;;;;;;;-0.36;64.67;97901.06;105726;1279;137224;-72
2022/02/20 05:27:46;;;;;;;13.10;5.40;;;;;;;-0.32;64.32;97885.92;105832;1279;22556;-72
2022/02/20 05:30:28;;;;;;;12.90;5.00;;;;;;;-0.26;64.33;97874.01;105648;1280;137093;-72
2022/02/20 05:33:18;;;;;;;10.80;5.00;;;;;;;-0.22;64.30;97863.47;105890;1280;22582;-72
2022/02/20 05:35:45;;;;;;;9.40;4.20;;;;;;;-0.18;64.10;97854.81;105965;1280;137362;-72
2022/02/20 05:38:16;;;;;;;10.90;3.70;;;;;;;-0.13;63.78;97853.46;105865;1280;22590;-72
2022/02/20 05:40:43;;;;;;;7.80;3.70;;;;;;;-0.08;63.41;97847.83;105822;1280;23381;-72
2022/02/20 05:43:13;;;;;;;10.90;4.30;;;;;;;-0.03;62.75;97850.18;105691;1280;136926;-72
2022/02/20 05:45:40;;;;;;;10.20;3.90;;;;;;;0.05;62.63;97847.56;105871;1280;25343;-74
2022/02/20 05:48:19;;;;;;;9.70;3.30;;;;;;;0.09;62.28;97836.56;105744;1280;136915;-74
2022/02/20 05:51:05;;;;;;;8.70;3.50;;;;;;;0.15;62.34;97831.18;105971;1280;23067;-72
2022/02/20 05:53:49;;;;;;;6.80;3.20;;;;;;;0.19;62.06;97825.86;105765;1279;136981;-72
2022/02/20 05:56:17;;;;;;;11.40;3.40;;;;;;;0.21;62.16;97820.27;105712;1279;22577;-72
2022/02/20 05:58:59;;;;;;;7.70;2.70;;;;;;;0.25;61.57;97816.95;106246;1280;25020;-73
2022/02/20 06:01:29;;;;;;;9.30;2.60;;;;;;;0.30;61.26;97811.50;105803;1281;136744;-74
2022/02/20 06:04:00;;;;;;;4.50;1.90;;;;;;;0.34;60.98;97806.14;106194;1280;22559;-73
2022/02/20 06:06:39;;;;;;;5.60;1.80;;;;;;;0.40;60.76;97809.36;106072;1279;137828;-73
2022/02/20 06:09:27;;;;;;;4.50;1.80;;;;;;;0.46;60.56;97810.39;105788;1279;25275;-73
2022/02/20 06:12:14;;;;;;;4.40;1.30;;;;;;;0.51;60.30;97808.95;105718;1280;137466;-72
2022/02/20 06:14:59;;;;;;;3.70;1.10;;;;;;;0.59;59.91;97806.38;105964;1280;22566;-72
2022/02/20 06:17:59;;;;;;;2.30;1.30;;;;;;;0.65;59.48;97802.45;105874;1280;136988;-73
2022/02/20 06:20:44;;;;;;;5.60;1.70;;;;;;;0.72;59.24;97800.80;105955;1280;25411;-72
2022/02/20 06:23:26;;;;;;;4.10;1.80;;;;;;;0.78;58.90;97799.48;105872;1279;137581;-74
2022/02/20 06:26:13;;;;;;;7.00;1.90;;;;;;;0.84;58.53;97801.85;105921;1279;25329;-74
2022/02/20 06:28:41;;;;;;;6.20;1.40;;;;;;;0.89;58.43;97796.20;105883;1279;23098;-74
2022/02/20 06:31:21;;;;;;;2.90;1.00;;;;;;;0.97;57.92;97792.34;105656;1280;137346;-74
2022/02/20 06:33:52;;;;;;;2.30;1.00;;;;;;;1.04;57.54;97790.73;105779;1280;22671;-73
2022/02/20 06:36:20;;;;;;;5.40;1.30;;;;;;;1.12;57.49;97791.49;105732;1280;136967;-74
2022/02/20 06:38:48;;;;;;;5.30;1.90;;;;;;;1.20;57.22;97789.42;106103;1283;22567;-72
2022/02/20 06:41:15;;;;;;;11.80;3.80;;;;;;;1.26;56.86;97786.38;106024;1281;137057;-73
2022/02/20 06:43:52;;;;;;;9.50;2.80;;;;;;;1.34;56.87;97789.38;106269;1279;31760;-73
2022/02/20 06:46:38;;;;;;;7.20;2.30;;;;;;;1.40;56.57;97780.48;105692;1279;22550;-73
2022/02/20 06:49:09;;;;;;;5.90;1.40;;;;;;;1.47;56.44;97783.99;105458;1279;136824;-73
2022/02/20 06:52:09;;;;;;;5.90;1.40;;;;;;;1.57;56.35;97791.86;105823;1279;22716;-73
2022/02/20 06:54:51;;;;;;;5.10;1.90;;;;;;;1.68;56.11;97791.84;105790;1280;136680;-73
2022/02/20 06:57:26;;;;;;;4.80;1.20;;;;;;;1.79;56.06;97795.15;106521;1280;24225;-73
2022/02/20 06:59:53;;;;;;;3.40;1.30;;;;;;;1.91;56.16;97799.49;106441;1280;137481;-73
2022/02/20 07:02:20;;;;;;;5.80;1.70;;;;;;;2.04;56.25;97803.39;106444;1280;22700;-72
2022/02/20 07:04:47;;;;;;;3.00;1.60;;;;;;;2.17;56.11;97801.85;106156;1279;22672;-72
2022/02/20 07:07:14;;;;;;;4.10;1.90;;;;;;;2.27;56.18;97804.79;105724;1279;136784;-71
2022/02/20 07:09:41;;;;;;;5.70;1.90;;;;;;;2.38;56.40;97804.98;105817;1280;25534;-71
2022/02/20 07:12:09;;;;;;;3.60;1.30;;;;;;;2.47;56.65;97806.41;105793;1279;137205;-70
2022/02/20 07:14:36;;;;;;;5.30;1.40;;;;;;;2.54;57.31;97801.62;106053;1280;25270;-71
2022/02/20 07:17:03;;;;;;;5.20;1.40;;;;;;;2.62;59.34;97808.00;105770;1280;24310;-71
2022/02/20 07:19:30;;;;;;;5.90;1.30;;;;;;;2.72;61.06;97807.02;105619;1280;137088;-71
2022/02/20 07:21:57;;;;;;;5.70;1.40;;;;;;;2.80;61.72;97814.41;106141;1280;23037;-72
2022/02/20 07:24:24;;;;;;;4.20;1.10;;;;;;;2.86;62.31;97821.88;105918;1280;136743;-72
2022/02/20 07:26:52;;;;;;;3.30;1.30;;;;;;;2.92;63.13;97828.45;106888;1280;22640;-72
2022/02/20 07:29:19;;;;;;;4.80;1.40;;;;;;;2.95;64.09;97829.06;106096;1280;137426;-72
2022/02/20 07:31:47;;;;;;;7.20;1.50;;;;;;;2.98;64.98;97831.40;106017;1280;24605;-71
2022/02/20 07:34:14;;;;;;;4.80;1.30;;;;;;;3.03;65.57;97832.80;106035;1280;24242;-71
2022/02/20 07:36:41;;;;;;;4.70;1.50;;;;;;;3.10;65.95;97837.25;105819;1281;139107;-71
2022/02/20 07:39:10;;;;;;;7.10;1.50;;;;;;;3.18;66.28;97831.70;105134;1282;25485;-71
2022/02/20 07:41:38;;;;;;;4.90;1.70;;;;;;;3.25;66.47;97836.39;105369;1281;137296;-72
2022/02/20 07:44:06;;;;;;;3.80;1.50;;;;;;;3.31;66.69;97834.77;105275;1281;25346;-72
2022/02/20 07:46:33;;;;;;;6.50;1.70;;;;;;;3.29;67.20;97840.73;105321;1281;24148;-72
2022/02/20 07:49:00;;;;;;;6.90;1.70;;;;;;;3.26;67.54;97839.70;105617;1281;136864;-72
2022/02/20 07:51:28;;;;;;;6.80;1.80;;;;;;;3.22;67.84;97842.16;105163;1284;25352;-72
2022/02/20 07:53:55;;;;;;;5.30;1.80;;;;;;;3.19;68.23;97840.27;105239;1281;137156;-73
2022/02/20 07:56:36;;;;;;;6.00;1.90;;;;;;;3.16;68.87;97832.77;105667;1280;25362;-73
2022/02/20 07:59:03;;;;;;;5.20;1.70;;;;;;;3.17;69.17;97834.98;105583;1280;22707;-73
2022/02/20 08:01:31;;;;;;;6.60;1.70;;;;;;;3.19;69.83;97835.21;105255;1281;137413;-73
2022/02/20 08:03:58;;;;;;;2.80;1.70;;;;;;;3.20;69.94;97828.95;105721;1280;22581;-73
2022/02/20 08:06:25;;;;;;;4.10;1.80;;;;;;;3.23;70.08;97828.42;105401;1281;137217;-73
2022/02/20 08:08:52;;;;;;;5.40;1.60;;;;;;;3.28;70.07;97830.10;105725;1281;23939;-73
2022/02/20 08:11:20;;;;;;;2.60;1.30;;;;;;;3.32;71.04;97824.33;105762;1281;137258;-73
2022/02/20 08:13:47;;;;;;;4.00;1.60;;;;;;;3.35;71.66;97833.34;105790;1281;23967;-73
2022/02/20 08:16:14;;;;;;;2.80;1.40;;;;;;;3.36;72.24;97824.06;105937;1280;22627;-72
2022/02/20 08:18:41;;;;;;;3.80;1.80;;;;;;;3.35;72.77;97830.56;105651;1281;137270;-73
2022/02/20 08:21:08;;;;;;;3.70;1.50;;;;;;;3.35;73.40;97831.63;105692;1281;25268;-73
2022/02/20 08:23:52;;;;;;;5.50;1.80;;;;;;;3.31;74.06;97836.66;105566;1281;137005;-73
2022/02/20 08:26:19;;;;;;;2.90;1.70;;;;;;;3.27;74.25;97835.93;105795;1281;22577;-73
2022/02/20 08:28:46;;;;;;;3.60;1.60;;;;;;;3.26;74.54;97843.64;105901;1280;24456;-73
2022/02/20 08:31:14;;;;;;;4.80;2.00;;;;;;;3.28;74.90;97841.23;105569;1280;137957;-73
2022/02/20 08:33:42;;;;;;;5.10;2.00;;;;;;;3.29;75.22;97846.45;105616;1282;24257;-73
2022/02/20 08:36:09;;;;;;;3.70;1.60;;;;;;;3.30;75.44;97840.92;105705;1281;136900;-73
2022/02/20 08:38:37;;;;;;;2.80;1.70;;;;;;;3.31;75.70;97837.41;105748;1281;23967;-73
2022/02/20 08:41:04;;;;;;;1.90;1.40;;;;;;;3.35;75.75;97839.91;105707;1281;22645;-73
2022/02/20 08:43:31;;;;;;;5.10;1.90;;;;;;;3.40;76.03;97844.04;105586;1281;137347;-74
2022/02/20 08:46:00;;;;;;;3.80;1.80;;;;;;;3.45;76.32;97845.13;105546;1281;25985;-73
2022/02/20 08:48:30;;;;;;;5.50;1.60;;;;;;;3.48;76.38;97849.75;105622;1281;137369;-74
2022/02/20 08:50:58;;;;;;;5.90;2.60;;;;;;;3.48;76.30;97845.61;105745;1281;25434;-74
2022/02/20 08:53:25;;;;;;;4.30;1.80;;;;;;;3.49;76.39;97846.81;105365;1281;137460;-74
2022/02/20 08:55:52;;;;;;;5.00;2.50;;;;;;;3.50;76.49;97847.55;105844;1281;26510;-74
2022/02/20 08:58:19;;;;;;;4.60;2.10;;;;;;;3.53;76.63;97845.99;105804;1281;22642;-74
2022/02/20 09:00:46;;;;;;;3.80;2.20;;;;;;;3.58;76.53;97848.45;105387;1281;279155;-74
2022/02/20 09:03:13;;;;;;;3.80;2.60;;;;;;;3.65;76.73;97847.44;105539;1280;25261;-74
2022/02/20 09:05:41;;;;;;;4.00;2.30;;;;;;;3.68;76.48;97848.16;105343;1281;137427;-74
2022/02/20 09:08:22;;;;;;;5.70;2.90;;;;;;;3.76;76.51;97849.60;105178;1283;248877;-74
2022/02/20 09:10:49;;;;;;;6.80;2.90;;;;;;;3.81;76.66;97849.45;105511;1282;25524;-74
2022/02/20 09:13:30;;;;;;;5.40;2.20;;;;;;;3.84;76.52;97853.83;105059;1283;137514;-74
2022/02/20 09:15:57;;;;;;;4.50;2.10;;;;;;;3.85;76.48;97853.20;105638;1281;25333;-73
2022/02/20 09:18:38;;;;;;;4.90;2.60;;;;;;;3.73;76.78;97851.11;105723;1281;136921;-74
2022/02/20 09:21:05;;;;;;;4.30;2.60;;;;;;;3.70;77.38;97863.27;106083;1280;23124;-74
2022/02/20 09:23:33;;;;;;;4.90;2.20;;;;;;;3.62;77.60;97855.69;106298;1281;136982;-74
2022/02/20 09:26:00;;;;;;;4.90;2.50;;;;;;;3.54;77.94;97856.64;106819;1280;22567;-74
2022/02/20 09:28:27;;;;;;;5.20;2.10;;;;;;;3.50;78.48;97860.31;105655;1281;22552;-74
2022/02/20 09:30:55;;;;;;;4.20;2.20;;;;;;;3.45;78.85;97861.04;105708;1284;137604;-74
2022/02/20 09:33:22;;;;;;;4.80;2.70;;;;;;;3.38;78.98;97854.36;105933;1281;22573;-74
2022/02/20 09:36:03;;;;;;;4.40;2.60;;;;;;;3.33;79.59;97857.59;106012;1281;136947;-74
2022/02/20 09:38:30;;;;;;;4.40;2.20;;;;;;;3.29;80.36;97855.14;106041;1281;22860;-74
2022/02/20 09:40:57;;;;;;;3.90;2.70;;;;;;;3.28;80.24;97855.77;105878;1281;23842;-74
2022/02/20 09:43:24;;;;;;;6.10;3.50;;;;;;;3.31;80.59;97859.96;106178;1281;137370;-74
2022/02/20 09:45:51;;;;;;;6.00;2.90;;;;;;;3.36;80.98;97863.92;106346;1281;24277;-74
2022/02/20 09:48:18;;;;;;;4.60;2.50;;;;;;;3.36;81.05;97862.14;106007;1280;136798;-74
2022/02/20 09:50:46;;;;;;;3.30;2.30;;;;;;;3.31;80.94;97868.41;106030;1281;22569;-74
2022/02/20 09:53:28;;;;;;;5.40;3.10;;;;;;;3.27;81.10;97866.52;105964;1281;137841;-74
2022/02/20 09:55:55;;;;;;;4.60;3.20;;;;;;;3.28;81.47;97869.71;106320;1281;25334;-74
2022/02/20 09:58:22;;;;;;;7.80;3.20;;;;;;;3.29;81.38;97870.73;106169;1281;22583;-74
2022/02/20 10:01:09;;;;;;;5.30;2.70;;;;;;;3.31;81.57;97870.70;105725;1281;137249;-74
2022/02/20 10:03:50;;;;;;;6.50;3.30;;;;;;;3.31;81.74;97873.00;106087;1281;22607;-75
2022/02/20 10:06:20;;;;;;;5.90;4.00;;;;;;;3.30;81.87;97874.17;105888;1281;137564;-75
2022/02/20 10:08:49;;;;;;;5.20;3.40;;;;;;;3.32;81.92;97875.85;106034;1281;25267;-75
2022/02/20 10:11:28;;;;;;;9.00;4.30;;;;;;;3.34;82.05;97867.98;106300;1280;137928;-75
2022/02/20 10:14:14;;;;;;;;;;;;;;;3.39;82.15;97867.59;105824;1284;22578;-75
2022/02/20 10:16:41;;;;;;;11.50;5.00;;;;;;;3.44;82.19;97867.00;105864;1278;24247;-75
2022/02/20 10:19:33;;;;;;;9.90;4.60;;;;;;;3.47;82.22;97871.42;105908;1278;137669;-75
2022/02/20 10:22:34;;;;;;;9.20;5.00;;;;;;;3.50;82.23;97869.38;106058;1278;25425;-74
2022/02/20 10:25:20;;;;;;;9.70;4.40;;;;;;;3.55;82.26;97871.79;106242;1278;137567;-76
2022/02/20 10:28:08;;;;;;;11.70;5.50;;;;;;;3.61;82.44;97868.75;106601;1277;30652;-72
2022/02/20 10:30:55;;;;;;;12.40;6.60;;;;;;;3.69;82.48;97876.28;105433;1277;137125;-72
2022/02/20 10:33:24;;;;;;;8.10;4.50;;;;;;;3.75;82.25;97878.85;105791;1278;22554;-74
2022/02/20 10:35:53;;;;;;;9.30;5.20;;;;;;;3.80;82.13;97880.61;105811;1281;137888;-74
2022/02/20 10:38:37;;;;;;;6.70;4.30;;;;;;;3.85;81.92;97878.64;105706;1281;30166;-77
2022/02/20 10:41:04;;;;;;;8.70;4.70;;;;;;;3.89;81.63;97877.62;105803;1281;22589;-73
2022/02/20 10:43:34;;;;;;;8.40;4.70;;;;;;;3.90;81.47;97874.34;105627;1279;136705;-73
2022/02/20 10:46:08;;;;;;;10.00;5.80;;;;;;;3.92;81.42;97874.45;105962;1278;22621;-74
2022/02/20 10:48:41;;;;;;;10.50;5.50;;;;;;;3.97;81.32;97865.84;105729;1281;137619;-74
2022/02/20 10:51:09;;;;;;;9.10;4.30;;;;;;;4.03;81.20;97868.13;105734;1281;24277;-74
2022/02/20 10:53:37;;;;;;;6.80;3.70;;;;;;;4.08;80.73;97867.77;105672;1280;137368;-74
2022/02/20 10:56:05;;;;;;;8.20;3.70;;;;;;;4.12;80.00;97866.48;105941;1281;22635;-74
2022/02/20 10:58:35;;;;;;;5.80;2.40;;;;;;;4.15;79.71;97865.05;106262;1277;22565;-75
2022/02/20 11:01:04;;;;;;;5.20;2.40;;;;;;;4.24;78.93;97853.69;105833;1278;137563;-74
2022/02/20 11:03:45;;;;;;;5.60;3.00;;;;;;;4.35;78.84;97856.78;106137;1278;23384;-74
2022/02/20 11:06:13;;;;;;;7.00;2.50;;;;;;;4.43;78.44;97857.75;105870;1277;138040;-74
2022/02/20 11:08:54;;;;;;;4.90;2.10;;;;;;;4.50;78.20;97856.04;106131;1281;24361;-74
2022/02/20 11:11:36;;;;;;;7.20;3.10;;;;;;;4.56;77.58;97853.95;105753;1281;137557;-74
2022/02/20 11:14:21;;;;;;;4.10;2.50;;;;;;;4.60;77.49;97848.98;105822;1278;22576;-74
2022/02/20 11:16:52;;;;;;;5.20;3.30;;;;;;;4.63;76.85;97848.95;106529;1278;25318;-75
2022/02/20 11:19:27;;;;;;;6.00;2.90;;;;;;;4.65;76.71;97849.54;106535;1277;137444;-74
2022/02/20 11:22:00;;;;;;;7.20;3.10;;;;;;;4.69;76.63;97857.23;106345;1277;22727;-74
2022/02/20 11:24:30;;;;;;;7.20;3.10;;;;;;;4.72;75.96;97855.75;106338;1277;137627;-74
2022/02/20 11:27:02;;;;;;;5.20;2.80;;;;;;;4.73;75.94;97857.86;106227;1277;22557;-75
2022/02/20 11:29:30;;;;;;;6.70;2.70;;;;;;;4.73;75.54;97858.39;106593;1278;137043;-75
2022/02/20 11:32:12;;;;;;;7.40;3.40;;;;;;;4.73;75.59;97866.16;106411;1278;22612;-74
2022/02/20 11:34:42;;;;;;;5.60;2.60;;;;;;;4.73;75.24;97864.27;106109;1277;25331;-74
2022/02/20 11:37:11;;;;;;;3.80;2.30;;;;;;;4.77;74.98;97869.23;107043;1277;138498;-74
2022/02/20 11:40:12;;;;;;;5.30;2.40;;;;;;;4.83;75.01;97861.75;106520;1278;30204;-74
2022/02/20 11:42:59;;;;;;;5.80;2.60;;;;;;;4.91;74.99;97861.79;106736;1277;136956;-74
2022/02/20 11:45:28;;;;;;;9.40;3.40;;;;;;;4.97;74.73;97853.23;106141;1277;24305;-74